sensor_id;sensor_type;location;lat;lon;timestamp;temperature;humidity
11140;DHT22;5624;49.388;11.350;2023-03-01T00:02:00;-2.10;76.10
11140;DHT22;5624;49.388;11.350;2023-03-01T00:04:26;-2.20;76.30
11140;DHT22;5624;49.388;11.350;2023-03-01T00:06:53;-2.30;77.30
11140;DHT22;5624;49.388;11.350;2023-03-01T00:09:19;-2.10;76.70
11140;DHT22;5624;49.388;11.350;2023-03-01T00:11:45;-2.10;76.70
11140;DHT22;5624;49.388;11.350;2023-03-01T00:14:11;-2.10;76.10
11140;DHT22;5624;49.388;11.350;2023-03-01T00:16:39;-2.30;76.70
11140;DHT22;5624;49.388;11.350;2023-03-01T00:19:10;-2.30;77.30
11140;DHT22;5624;49.388;11.350;2023-03-01T00:21:36;-2.20;76.70
11140;DHT22;5624;49.388;11.350;2023-03-01T00:24:02;-2.20;76.60
11140;DHT22;5624;49.388;11.350;2023-03-01T00:26:28;-2.30;77.30
11140;DHT22;5624;49.388;11.350;2023-03-01T00:28:54;-2.30;77.20
11140;DHT22;5624;49.388;11.350;2023-03-01T00:31:23;-2.40;76.80
11140;DHT22;5624;49.388;11.350;2023-03-01T00:33:52;-2.60;77.70
11140;DHT22;5624;49.388;11.350;2023-03-01T00:36:18;-2.70;78.60
11140;DHT22;5624;49.388;11.350;2023-03-01T00:38:45;-2.70;79.10
11140;DHT22;5624;49.388;11.350;2023-03-01T00:41:13;-2.60;78.20
11140;DHT22;5624;49.388;11.350;2023-03-01T00:43:39;-2.50;77.90
11140;DHT22;5624;49.388;11.350;2023-03-01T00:46:08;-2.50;76.90
11140;DHT22;5624;49.388;11.350;2023-03-01T00:48:34;-2.50;78.40
11140;DHT22;5624;49.388;11.350;2023-03-01T00:51:08;-2.40;77.30
11140;DHT22;5624;49.388;11.350;2023-03-01T00:53:34;-2.30;77.30
11140;DHT22;5624;49.388;11.350;2023-03-01T00:56:00;-2.40;77.00
11140;DHT22;5624;49.388;11.350;2023-03-01T00:58:25;-2.40;76.80
11140;DHT22;5624;49.388;11.350;2023-03-01T01:00:51;-2.40;76.80
11140;DHT22;5624;49.388;11.350;2023-03-01T01:03:18;-2.40;76.80
11140;DHT22;5624;49.388;11.350;2023-03-01T01:05:43;-2.50;77.40
11140;DHT22;5624;49.388;11.350;2023-03-01T01:08:09;-2.50;77.10
11140;DHT22;5624;49.388;11.350;2023-03-01T01:10:35;-2.50;77.20
11140;DHT22;5624;49.388;11.350;2023-03-01T01:13:00;-2.70;77.80
11140;DHT22;5624;49.388;11.350;2023-03-01T01:15:26;-2.80;78.50
11140;DHT22;5624;49.388;11.350;2023-03-01T01:17:52;-2.70;78.20
11140;DHT22;5624;49.388;11.350;2023-03-01T01:20:17;-2.70;78.30
11140;DHT22;5624;49.388;11.350;2023-03-01T01:22:43;-2.60;78.00
11140;DHT22;5624;49.388;11.350;2023-03-01T01:25:09;-2.50;77.50
11140;DHT22;5624;49.388;11.350;2023-03-01T01:27:34;-2.50;76.60
11140;DHT22;5624;49.388;11.350;2023-03-01T01:30:00;-2.60;77.40
11140;DHT22;5624;49.388;11.350;2023-03-01T01:32:26;-2.50;77.30
11140;DHT22;5624;49.388;11.350;2023-03-01T01:34:51;-2.50;77.20
11140;DHT22;5624;49.388;11.350;2023-03-01T01:37:17;-2.50;77.20
11140;DHT22;5624;49.388;11.350;2023-03-01T01:39:42;-2.50;77.00
11140;DHT22;5624;49.388;11.350;2023-03-01T01:42:18;-2.60;77.10
11140;DHT22;5624;49.388;11.350;2023-03-01T01:44:47;-2.60;77.30
11140;DHT22;5624;49.388;11.350;2023-03-01T01:47:15;-2.50;77.10
11140;DHT22;5624;49.388;11.350;2023-03-01T01:49:43;-2.60;77.30
11140;DHT22;5624;49.388;11.350;2023-03-01T01:52:17;-2.60;77.30
11140;DHT22;5624;49.388;11.350;2023-03-01T01:55:04;-2.70;77.50
11140;DHT22;5624;49.388;11.350;2023-03-01T01:57:40;-2.70;77.80
11140;DHT22;5624;49.388;11.350;2023-03-01T02:00:28;-2.70;77.70
11140;DHT22;5624;49.388;11.350;2023-03-01T02:02:59;-2.60;77.50
11140;DHT22;5624;49.388;11.350;2023-03-01T02:05:43;-2.60;77.50
11140;DHT22;5624;49.388;11.350;2023-03-01T02:08:13;-2.60;77.30
11140;DHT22;5624;49.388;11.350;2023-03-01T02:10:39;-2.70;77.40
11140;DHT22;5624;49.388;11.350;2023-03-01T02:13:06;-2.70;77.60
11140;DHT22;5624;49.388;11.350;2023-03-01T02:15:34;-2.70;77.70
11140;DHT22;5624;49.388;11.350;2023-03-01T02:18:01;-2.70;77.80
11140;DHT22;5624;49.388;11.350;2023-03-01T02:23:16;-2.60;77.80
11140;DHT22;5624;49.388;11.350;2023-03-01T02:25:58;-2.70;77.40
11140;DHT22;5624;49.388;11.350;2023-03-01T02:28:36;-2.70;77.50
11140;DHT22;5624;49.388;11.350;2023-03-01T02:31:05;-2.70;77.60
11140;DHT22;5624;49.388;11.350;2023-03-01T02:33:49;-2.70;77.70
11140;DHT22;5624;49.388;11.350;2023-03-01T02:36:28;-2.80;77.80
11140;DHT22;5624;49.388;11.350;2023-03-01T02:38:58;-2.80;78.00
11140;DHT22;5624;49.388;11.350;2023-03-01T02:41:27;-2.90;78.00
11140;DHT22;5624;49.388;11.350;2023-03-01T02:43:54;-2.90;78.30
11140;DHT22;5624;49.388;11.350;2023-03-01T02:46:23;-2.90;78.30
11140;DHT22;5624;49.388;11.350;2023-03-01T02:48:51;-2.80;78.00
11140;DHT22;5624;49.388;11.350;2023-03-01T02:54:18;-2.80;77.60
11140;DHT22;5624;49.388;11.350;2023-03-01T02:56:47;-2.80;77.60
11140;DHT22;5624;49.388;11.350;2023-03-01T02:59:21;-2.90;78.30
11140;DHT22;5624;49.388;11.350;2023-03-01T03:01:47;-3.00;78.90
11140;DHT22;5624;49.388;11.350;2023-03-01T03:04:15;-3.00;78.90
11140;DHT22;5624;49.388;11.350;2023-03-01T03:06:47;-2.90;78.70
11140;DHT22;5624;49.388;11.350;2023-03-01T03:09:14;-2.90;78.50
11140;DHT22;5624;49.388;11.350;2023-03-01T03:11:39;-2.90;78.30
11140;DHT22;5624;49.388;11.350;2023-03-01T03:14:07;-2.90;78.10
11140;DHT22;5624;49.388;11.350;2023-03-01T03:16:40;-2.90;78.00
11140;DHT22;5624;49.388;11.350;2023-03-01T03:19:05;-2.90;78.30
11140;DHT22;5624;49.388;11.350;2023-03-01T03:21:32;-2.90;78.30
11140;DHT22;5624;49.388;11.350;2023-03-01T03:23:58;-2.90;78.20
11140;DHT22;5624;49.388;11.350;2023-03-01T03:26:23;-2.90;77.80
11140;DHT22;5624;49.388;11.350;2023-03-01T03:28:49;-2.90;77.70
11140;DHT22;5624;49.388;11.350;2023-03-01T03:31:15;-2.90;77.90
11140;DHT22;5624;49.388;11.350;2023-03-01T03:33:41;-2.90;77.80
11140;DHT22;5624;49.388;11.350;2023-03-01T03:36:06;-2.90;77.80
11140;DHT22;5624;49.388;11.350;2023-03-01T03:38:32;-2.90;77.70
11140;DHT22;5624;49.388;11.350;2023-03-01T03:41:04;-3.00;77.80
11140;DHT22;5624;49.388;11.350;2023-03-01T03:43:31;-3.00;77.80
11140;DHT22;5624;49.388;11.350;2023-03-01T03:45:57;-3.00;78.00
11140;DHT22;5624;49.388;11.350;2023-03-01T03:48:24;-3.00;77.90
11140;DHT22;5624;49.388;11.350;2023-03-01T03:50:55;-3.00;78.00
11140;DHT22;5624;49.388;11.350;2023-03-01T03:53:23;-3.00;78.20
11140;DHT22;5624;49.388;11.350;2023-03-01T03:55:49;-3.00;77.80
11140;DHT22;5624;49.388;11.350;2023-03-01T03:58:15;-3.00;77.80
11140;DHT22;5624;49.388;11.350;2023-03-01T04:00:43;-3.00;77.70
11140;DHT22;5624;49.388;11.350;2023-03-01T04:03:11;-3.00;77.80
11140;DHT22;5624;49.388;11.350;2023-03-01T04:05:38;-3.00;77.80
11140;DHT22;5624;49.388;11.350;2023-03-01T04:08:04;-3.00;77.80
11140;DHT22;5624;49.388;11.350;2023-03-01T04:13:05;-3.10;78.20
11140;DHT22;5624;49.388;11.350;2023-03-01T04:15:31;-3.10;78.40
11140;DHT22;5624;49.388;11.350;2023-03-01T04:17:58;-3.10;78.40
11140;DHT22;5624;49.388;11.350;2023-03-01T04:20:29;-3.10;78.30
11140;DHT22;5624;49.388;11.350;2023-03-01T04:23:01;-3.10;78.00
11140;DHT22;5624;49.388;11.350;2023-03-01T04:25:45;-3.10;78.10
11140;DHT22;5624;49.388;11.350;2023-03-01T04:28:11;-3.20;78.10
11140;DHT22;5624;49.388;11.350;2023-03-01T04:30:38;-3.10;78.40
11140;DHT22;5624;49.388;11.350;2023-03-01T04:33:08;-3.10;78.50
11140;DHT22;5624;49.388;11.350;2023-03-01T04:35:35;-3.10;78.10
11140;DHT22;5624;49.388;11.350;2023-03-01T04:38:02;-3.20;78.30
11140;DHT22;5624;49.388;11.350;2023-03-01T04:40:28;-3.20;78.30
11140;DHT22;5624;49.388;11.350;2023-03-01T04:42:54;-3.10;78.30
11140;DHT22;5624;49.388;11.350;2023-03-01T04:45:19;-3.20;78.40
11140;DHT22;5624;49.388;11.350;2023-03-01T04:47:46;-3.30;78.80
11140;DHT22;5624;49.388;11.350;2023-03-01T04:50:14;-3.20;78.60
11140;DHT22;5624;49.388;11.350;2023-03-01T04:52:41;-3.20;78.60
11140;DHT22;5624;49.388;11.350;2023-03-01T04:55:07;-3.20;78.60
11140;DHT22;5624;49.388;11.350;2023-03-01T04:57:33;-3.20;78.90
11140;DHT22;5624;49.388;11.350;2023-03-01T04:59:58;-3.20;78.70
11140;DHT22;5624;49.388;11.350;2023-03-01T05:02:24;-3.20;78.70
11140;DHT22;5624;49.388;11.350;2023-03-01T05:04:50;-3.20;78.60
11140;DHT22;5624;49.388;11.350;2023-03-01T05:07:15;-3.10;78.30
11140;DHT22;5624;49.388;11.350;2023-03-01T05:09:45;-3.20;78.30
11140;DHT22;5624;49.388;11.350;2023-03-01T05:12:11;-3.10;78.80
11140;DHT22;5624;49.388;11.350;2023-03-01T05:14:37;-3.20;78.70
11140;DHT22;5624;49.388;11.350;2023-03-01T05:17:03;-3.20;78.30
11140;DHT22;5624;49.388;11.350;2023-03-01T05:19:30;-3.20;78.70
11140;DHT22;5624;49.388;11.350;2023-03-01T05:21:56;-3.20;78.70
11140;DHT22;5624;49.388;11.350;2023-03-01T05:24:33;-3.30;78.70
11140;DHT22;5624;49.388;11.350;2023-03-01T05:26:59;-3.30;78.90
11140;DHT22;5624;49.388;11.350;2023-03-01T05:29:26;-3.30;79.10
11140;DHT22;5624;49.388;11.350;2023-03-01T05:31:59;-3.30;78.90
11140;DHT22;5624;49.388;11.350;2023-03-01T05:34:28;-3.30;79.40
11140;DHT22;5624;49.388;11.350;2023-03-01T05:36:54;-3.30;78.70
11140;DHT22;5624;49.388;11.350;2023-03-01T05:39:25;-3.30;79.00
11140;DHT22;5624;49.388;11.350;2023-03-01T05:41:56;-3.30;78.90
11140;DHT22;5624;49.388;11.350;2023-03-01T05:44:22;-3.30;78.90
11140;DHT22;5624;49.388;11.350;2023-03-01T05:46:48;-3.30;78.90
11140;DHT22;5624;49.388;11.350;2023-03-01T05:49:15;-3.30;78.90
11140;DHT22;5624;49.388;11.350;2023-03-01T05:51:42;-3.30;78.90
11140;DHT22;5624;49.388;11.350;2023-03-01T05:54:09;-3.30;78.90
11140;DHT22;5624;49.388;11.350;2023-03-01T05:56:36;-3.30;78.80
11140;DHT22;5624;49.388;11.350;2023-03-01T05:59:03;-3.20;78.70
11140;DHT22;5624;49.388;11.350;2023-03-01T06:01:31;-3.30;78.70
11140;DHT22;5624;49.388;11.350;2023-03-01T06:03:57;-3.30;78.80
11140;DHT22;5624;49.388;11.350;2023-03-01T06:06:23;-3.20;78.70
11140;DHT22;5624;49.388;11.350;2023-03-01T06:08:49;-3.20;78.70
11140;DHT22;5624;49.388;11.350;2023-03-01T06:11:15;-3.20;78.60
11140;DHT22;5624;49.388;11.350;2023-03-01T06:13:42;-3.30;78.80
11140;DHT22;5624;49.388;11.350;2023-03-01T06:16:08;-3.20;78.60
11140;DHT22;5624;49.388;11.350;2023-03-01T06:18:34;-3.20;78.70
11140;DHT22;5624;49.388;11.350;2023-03-01T06:21:00;-3.10;78.60
11140;DHT22;5624;49.388;11.350;2023-03-01T06:23:26;-3.00;78.90
11140;DHT22;5624;49.388;11.350;2023-03-01T06:25:52;-3.00;78.10
11140;DHT22;5624;49.388;11.350;2023-03-01T06:28:17;-2.90;78.00
11140;DHT22;5624;49.388;11.350;2023-03-01T06:30:43;-2.30;76.10
11140;DHT22;5624;49.388;11.350;2023-03-01T06:33:09;-1.70;72.90
11140;DHT22;5624;49.388;11.350;2023-03-01T06:35:35;-1.20;70.90
11140;DHT22;5624;49.388;11.350;2023-03-01T06:38:02;-1.20;69.80
11140;DHT22;5624;49.388;11.350;2023-03-01T06:40:29;-1.10;69.40
11140;DHT22;5624;49.388;11.350;2023-03-01T06:42:54;-0.70;68.10
11140;DHT22;5624;49.388;11.350;2023-03-01T06:45:21;-0.60;66.90
11140;DHT22;5624;49.388;11.350;2023-03-01T06:47:47;-0.30;66.70
11140;DHT22;5624;49.388;11.350;2023-03-01T06:50:14;0.00;65.00
11140;DHT22;5624;49.388;11.350;2023-03-01T06:52:40;0.00;64.50
11140;DHT22;5624;49.388;11.350;2023-03-01T06:55:06;0.00;64.80
11140;DHT22;5624;49.388;11.350;2023-03-01T06:57:32;0.50;63.50
11140;DHT22;5624;49.388;11.350;2023-03-01T06:59:57;1.00;61.00
11140;DHT22;5624;49.388;11.350;2023-03-01T07:02:23;1.30;60.30
11140;DHT22;5624;49.388;11.350;2023-03-01T07:04:50;2.00;58.50
11140;DHT22;5624;49.388;11.350;2023-03-01T07:07:16;2.60;55.80
11140;DHT22;5624;49.388;11.350;2023-03-01T07:09:44;2.80;54.40
11140;DHT22;5624;49.388;11.350;2023-03-01T07:12:09;1.80;56.40
11140;DHT22;5624;49.388;11.350;2023-03-01T07:14:35;2.10;55.70
11140;DHT22;5624;49.388;11.350;2023-03-01T07:17:01;2.40;56.10
11140;DHT22;5624;49.388;11.350;2023-03-01T07:19:26;2.30;55.20
11140;DHT22;5624;49.388;11.350;2023-03-01T07:21:52;2.30;56.00
11140;DHT22;5624;49.388;11.350;2023-03-01T07:24:18;2.10;56.60
11140;DHT22;5624;49.388;11.350;2023-03-01T07:26:43;1.80;56.60
11140;DHT22;5624;49.388;11.350;2023-03-01T07:29:10;2.00;57.30
11140;DHT22;5624;49.388;11.350;2023-03-01T07:31:35;2.20;56.50
11140;DHT22;5624;49.388;11.350;2023-03-01T07:34:02;2.30;55.60
11140;DHT22;5624;49.388;11.350;2023-03-01T07:36:28;1.80;56.10
11140;DHT22;5624;49.388;11.350;2023-03-01T07:38:53;1.40;57.60
11140;DHT22;5624;49.388;11.350;2023-03-01T07:41:21;1.50;57.90
11140;DHT22;5624;49.388;11.350;2023-03-01T07:43:47;1.70;56.60
11140;DHT22;5624;49.388;11.350;2023-03-01T07:46:12;1.50;58.10
11140;DHT22;5624;49.388;11.350;2023-03-01T07:48:38;1.80;57.40
11140;DHT22;5624;49.388;11.350;2023-03-01T07:51:05;1.90;56.40
11140;DHT22;5624;49.388;11.350;2023-03-01T07:53:32;2.10;55.80
11140;DHT22;5624;49.388;11.350;2023-03-01T07:56:17;1.90;56.60
11140;DHT22;5624;49.388;11.350;2023-03-01T07:58:44;2.00;56.10
11140;DHT22;5624;49.388;11.350;2023-03-01T08:01:14;1.80;55.90
11140;DHT22;5624;49.388;11.350;2023-03-01T08:03:40;2.00;56.50
11140;DHT22;5624;49.388;11.350;2023-03-01T08:06:08;2.10;55.10
11140;DHT22;5624;49.388;11.350;2023-03-01T08:08:35;1.90;55.40
11140;DHT22;5624;49.388;11.350;2023-03-01T08:11:02;1.90;55.30
11140;DHT22;5624;49.388;11.350;2023-03-01T08:13:29;1.90;55.30
11140;DHT22;5624;49.388;11.350;2023-03-01T08:15:54;2.30;55.60
11140;DHT22;5624;49.388;11.350;2023-03-01T08:18:21;2.50;54.50
11140;DHT22;5624;49.388;11.350;2023-03-01T08:20:46;2.60;53.50
11140;DHT22;5624;49.388;11.350;2023-03-01T08:23:12;2.50;53.80
11140;DHT22;5624;49.388;11.350;2023-03-01T08:25:38;2.70;53.30
11140;DHT22;5624;49.388;11.350;2023-03-01T08:28:04;2.80;52.90
11140;DHT22;5624;49.388;11.350;2023-03-01T08:30:30;3.00;52.60
11140;DHT22;5624;49.388;11.350;2023-03-01T08:32:56;3.10;51.10
11140;DHT22;5624;49.388;11.350;2023-03-01T08:35:21;3.30;51.50
11140;DHT22;5624;49.388;11.350;2023-03-01T08:37:47;3.50;50.40
11140;DHT22;5624;49.388;11.350;2023-03-01T08:40:13;3.30;51.00
11140;DHT22;5624;49.388;11.350;2023-03-01T08:42:42;3.40;51.00
11140;DHT22;5624;49.388;11.350;2023-03-01T08:45:09;3.60;51.50
11140;DHT22;5624;49.388;11.350;2023-03-01T08:47:35;3.20;51.20
11140;DHT22;5624;49.388;11.350;2023-03-01T08:50:02;2.80;51.70
11140;DHT22;5624;49.388;11.350;2023-03-01T08:52:27;3.10;51.70
11140;DHT22;5624;49.388;11.350;2023-03-01T08:54:53;3.40;50.20
11140;DHT22;5624;49.388;11.350;2023-03-01T08:57:19;3.30;51.20
11140;DHT22;5624;49.388;11.350;2023-03-01T08:59:45;3.70;50.70
11140;DHT22;5624;49.388;11.350;2023-03-01T09:02:13;4.30;48.80
11140;DHT22;5624;49.388;11.350;2023-03-01T09:04:39;4.30;48.30
11140;DHT22;5624;49.388;11.350;2023-03-01T09:07:05;4.40;47.60
11140;DHT22;5624;49.388;11.350;2023-03-01T09:09:31;4.50;47.50
11140;DHT22;5624;49.388;11.350;2023-03-01T09:11:57;4.30;46.70
11140;DHT22;5624;49.388;11.350;2023-03-01T09:14:22;4.40;47.30
11140;DHT22;5624;49.388;11.350;2023-03-01T09:16:48;4.80;47.10
11140;DHT22;5624;49.388;11.350;2023-03-01T09:19:14;4.50;46.10
11140;DHT22;5624;49.388;11.350;2023-03-01T09:21:40;4.60;47.00
11140;DHT22;5624;49.388;11.350;2023-03-01T09:24:16;4.30;46.40
11140;DHT22;5624;49.388;11.350;2023-03-01T09:26:41;4.40;47.90
11140;DHT22;5624;49.388;11.350;2023-03-01T09:29:07;4.50;47.10
11140;DHT22;5624;49.388;11.350;2023-03-01T09:31:34;4.40;46.90
11140;DHT22;5624;49.388;11.350;2023-03-01T09:34:00;4.30;46.70
11140;DHT22;5624;49.388;11.350;2023-03-01T09:36:26;4.60;46.90
11140;DHT22;5624;49.388;11.350;2023-03-01T09:38:52;4.70;47.20
11140;DHT22;5624;49.388;11.350;2023-03-01T09:44:48;5.40;44.70
11140;DHT22;5624;49.388;11.350;2023-03-01T09:47:25;5.10;44.60
11140;DHT22;5624;49.388;11.350;2023-03-01T09:52:40;5.30;45.80
11140;DHT22;5624;49.388;11.350;2023-03-01T09:55:12;5.50;44.60
11140;DHT22;5624;49.388;11.350;2023-03-01T09:57:43;5.70;44.60
11140;DHT22;5624;49.388;11.350;2023-03-01T10:02:56;5.60;45.20
11140;DHT22;5624;49.388;11.350;2023-03-01T10:05:38;5.80;44.00
11140;DHT22;5624;49.388;11.350;2023-03-01T10:10:37;5.60;45.20
11140;DHT22;5624;49.388;11.350;2023-03-01T10:13:15;5.50;44.60
11140;DHT22;5624;49.388;11.350;2023-03-01T10:16:01;5.40;45.20
11140;DHT22;5624;49.388;11.350;2023-03-01T10:18:30;5.50;44.80
11140;DHT22;5624;49.388;11.350;2023-03-01T10:21:14;5.80;44.00
11140;DHT22;5624;49.388;11.350;2023-03-01T10:23:40;5.60;44.50
11140;DHT22;5624;49.388;11.350;2023-03-01T10:29:07;5.90;44.80
11140;DHT22;5624;49.388;11.350;2023-03-01T10:31:51;6.00;44.20
11140;DHT22;5624;49.388;11.350;2023-03-01T10:34:29;6.20;44.90
11140;DHT22;5624;49.388;11.350;2023-03-01T10:36:58;6.50;42.60
11140;DHT22;5624;49.388;11.350;2023-03-01T10:39:26;6.50;42.40
11140;DHT22;5624;49.388;11.350;2023-03-01T10:47:02;6.50;43.30
11140;DHT22;5624;49.388;11.350;2023-03-01T10:49:28;6.10;42.90
11140;DHT22;5624;49.388;11.350;2023-03-01T10:51:53;5.70;45.00
11140;DHT22;5624;49.388;11.350;2023-03-01T10:54:27;5.70;44.40
11140;DHT22;5624;49.388;11.350;2023-03-01T10:56:56;5.80;45.00
11140;DHT22;5624;49.388;11.350;2023-03-01T10:59:36;5.90;46.30
11140;DHT22;5624;49.388;11.350;2023-03-01T11:05:00;6.30;44.30
11140;DHT22;5624;49.388;11.350;2023-03-01T11:07:26;6.50;42.60
11140;DHT22;5624;49.388;11.350;2023-03-01T11:09:52;6.40;44.10
11140;DHT22;5624;49.388;11.350;2023-03-01T11:12:17;6.60;44.00
11140;DHT22;5624;49.388;11.350;2023-03-01T11:14:52;6.70;42.90
11140;DHT22;5624;49.388;11.350;2023-03-01T11:20:10;6.70;43.80
11140;DHT22;5624;49.388;11.350;2023-03-01T11:22:49;6.60;42.50
11140;DHT22;5624;49.388;11.350;2023-03-01T11:25:18;6.50;42.40
11140;DHT22;5624;49.388;11.350;2023-03-01T11:27:46;6.30;44.00
11140;DHT22;5624;49.388;11.350;2023-03-01T11:30:29;6.20;44.30
11140;DHT22;5624;49.388;11.350;2023-03-01T11:35:36;6.80;42.70
11140;DHT22;5624;49.388;11.350;2023-03-01T11:38:15;6.70;43.50
11140;DHT22;5624;49.388;11.350;2023-03-01T11:40:49;6.80;43.00
11140;DHT22;5624;49.388;11.350;2023-03-01T11:46:12;6.90;42.00
11140;DHT22;5624;49.388;11.350;2023-03-01T11:54:17;6.70;42.50
11140;DHT22;5624;49.388;11.350;2023-03-01T11:56:55;7.00;42.60
11140;DHT22;5624;49.388;11.350;2023-03-01T12:05:12;7.50;42.20
11140;DHT22;5624;49.388;11.350;2023-03-01T12:24:01;7.00;44.30
11140;DHT22;5624;49.388;11.350;2023-03-01T12:29:20;7.00;43.80
11140;DHT22;5624;49.388;11.350;2023-03-01T12:40:22;6.70;45.50
11140;DHT22;5624;49.388;11.350;2023-03-01T12:43:02;6.80;45.20
11140;DHT22;5624;49.388;11.350;2023-03-01T12:48:34;6.90;45.60
11140;DHT22;5624;49.388;11.350;2023-03-01T12:51:06;6.70;46.10
11140;DHT22;5624;49.388;11.350;2023-03-01T12:53:39;6.80;47.20
11140;DHT22;5624;49.388;11.350;2023-03-01T12:56:10;6.90;47.40
11140;DHT22;5624;49.388;11.350;2023-03-01T12:59:05;6.90;46.80
11140;DHT22;5624;49.388;11.350;2023-03-01T13:12:44;7.20;48.00
11140;DHT22;5624;49.388;11.350;2023-03-01T13:17:50;7.50;47.00
11140;DHT22;5624;49.388;11.350;2023-03-01T13:20:19;7.10;46.80
11140;DHT22;5624;49.388;11.350;2023-03-01T13:22:47;6.90;48.80
11140;DHT22;5624;49.388;11.350;2023-03-01T13:25:18;7.10;49.40
11140;DHT22;5624;49.388;11.350;2023-03-01T13:27:46;7.20;48.40
11140;DHT22;5624;49.388;11.350;2023-03-01T13:33:43;7.00;48.30
11140;DHT22;5624;49.388;11.350;2023-03-01T13:36:10;6.90;48.10
11140;DHT22;5624;49.388;11.350;2023-03-01T13:46:53;7.30;48.80
11140;DHT22;5624;49.388;11.350;2023-03-01T13:49:27;7.30;48.80
11140;DHT22;5624;49.388;11.350;2023-03-01T13:51:54;7.20;49.00
11140;DHT22;5624;49.388;11.350;2023-03-01T13:54:40;7.30;48.80
11140;DHT22;5624;49.388;11.350;2023-03-01T13:57:06;7.20;50.00
11140;DHT22;5624;49.388;11.350;2023-03-01T13:59:47;7.30;49.60
11140;DHT22;5624;49.388;11.350;2023-03-01T14:02:13;7.50;49.60
11140;DHT22;5624;49.388;11.350;2023-03-01T14:04:40;7.40;49.20
11140;DHT22;5624;49.388;11.350;2023-03-01T14:07:33;7.30;49.40
11140;DHT22;5624;49.388;11.350;2023-03-01T14:10:18;7.00;49.10
11140;DHT22;5624;49.388;11.350;2023-03-01T14:15:44;6.90;49.60
11140;DHT22;5624;49.388;11.350;2023-03-01T14:18:29;6.70;50.40
11140;DHT22;5624;49.388;11.350;2023-03-01T14:21:01;6.60;51.00
11140;DHT22;5624;49.388;11.350;2023-03-01T14:23:32;6.40;51.00
11140;DHT22;5624;49.388;11.350;2023-03-01T14:26:00;6.50;50.80
11140;DHT22;5624;49.388;11.350;2023-03-01T14:28:28;6.50;51.40
11140;DHT22;5624;49.388;11.350;2023-03-01T14:30:55;6.50;51.50
11140;DHT22;5624;49.388;11.350;2023-03-01T14:36:00;6.50;51.70
11140;DHT22;5624;49.388;11.350;2023-03-01T14:41:03;6.50;52.60
11140;DHT22;5624;49.388;11.350;2023-03-01T14:43:30;6.40;51.80
11140;DHT22;5624;49.388;11.350;2023-03-01T14:45:56;6.30;51.70
11140;DHT22;5624;49.388;11.350;2023-03-01T14:48:23;6.10;51.50
11140;DHT22;5624;49.388;11.350;2023-03-01T14:50:49;5.90;52.60
11140;DHT22;5624;49.388;11.350;2023-03-01T14:53:21;5.90;52.60
11140;DHT22;5624;49.388;11.350;2023-03-01T14:55:52;5.80;52.80
11140;DHT22;5624;49.388;11.350;2023-03-01T14:58:21;5.80;53.10
11140;DHT22;5624;49.388;11.350;2023-03-01T15:00:56;5.80;52.90
11140;DHT22;5624;49.388;11.350;2023-03-01T15:03:41;5.80;53.50
11140;DHT22;5624;49.388;11.350;2023-03-01T15:06:09;5.90;53.20
11140;DHT22;5624;49.388;11.350;2023-03-01T15:08:41;5.90;53.10
11140;DHT22;5624;49.388;11.350;2023-03-01T15:13:40;5.80;53.70
11140;DHT22;5624;49.388;11.350;2023-03-01T15:16:16;5.80;53.90
11140;DHT22;5624;49.388;11.350;2023-03-01T15:18:48;5.70;54.70
11140;DHT22;5624;49.388;11.350;2023-03-01T15:26:51;5.70;54.20
11140;DHT22;5624;49.388;11.350;2023-03-01T15:29:22;5.70;54.50
11140;DHT22;5624;49.388;11.350;2023-03-01T15:32:00;5.70;53.90
11140;DHT22;5624;49.388;11.350;2023-03-01T15:34:29;5.70;54.10
11140;DHT22;5624;49.388;11.350;2023-03-01T15:36:57;5.60;54.20
11140;DHT22;5624;49.388;11.350;2023-03-01T15:39:38;5.50;54.40
11140;DHT22;5624;49.388;11.350;2023-03-01T15:42:05;5.50;54.70
11140;DHT22;5624;49.388;11.350;2023-03-01T15:44:34;5.50;54.60
11140;DHT22;5624;49.388;11.350;2023-03-01T15:47:00;5.40;55.10
11140;DHT22;5624;49.388;11.350;2023-03-01T15:49:37;5.40;55.00
11140;DHT22;5624;49.388;11.350;2023-03-01T15:52:04;5.40;55.00
11140;DHT22;5624;49.388;11.350;2023-03-01T15:54:30;5.40;55.10
11140;DHT22;5624;49.388;11.350;2023-03-01T15:56:57;5.30;55.50
11140;DHT22;5624;49.388;11.350;2023-03-01T15:59:22;5.30;55.90
11140;DHT22;5624;49.388;11.350;2023-03-01T16:01:48;5.10;55.50
11140;DHT22;5624;49.388;11.350;2023-03-01T16:04:16;5.00;56.00
11140;DHT22;5624;49.388;11.350;2023-03-01T16:06:51;4.90;56.20
11140;DHT22;5624;49.388;11.350;2023-03-01T16:09:24;4.90;56.00
11140;DHT22;5624;49.388;11.350;2023-03-01T16:11:51;4.80;56.40
11140;DHT22;5624;49.388;11.350;2023-03-01T16:14:17;4.80;56.50
11140;DHT22;5624;49.388;11.350;2023-03-01T16:16:44;4.70;57.10
11140;DHT22;5624;49.388;11.350;2023-03-01T16:19:10;4.60;57.20
11140;DHT22;5624;49.388;11.350;2023-03-01T16:21:36;4.60;57.40
11140;DHT22;5624;49.388;11.350;2023-03-01T16:24:02;4.60;57.40
11140;DHT22;5624;49.388;11.350;2023-03-01T16:26:27;4.50;57.40
11140;DHT22;5624;49.388;11.350;2023-03-01T16:28:57;4.50;57.40
11140;DHT22;5624;49.388;11.350;2023-03-01T16:31:23;4.40;57.80
11140;DHT22;5624;49.388;11.350;2023-03-01T16:33:53;4.40;58.00
11140;DHT22;5624;49.388;11.350;2023-03-01T16:36:20;4.30;58.10
11140;DHT22;5624;49.388;11.350;2023-03-01T16:38:49;4.30;58.40
11140;DHT22;5624;49.388;11.350;2023-03-01T16:41:16;4.20;58.40
11140;DHT22;5624;49.388;11.350;2023-03-01T16:43:42;4.10;58.60
11140;DHT22;5624;49.388;11.350;2023-03-01T16:46:16;4.10;59.00
11140;DHT22;5624;49.388;11.350;2023-03-01T16:48:42;4.10;58.90
11140;DHT22;5624;49.388;11.350;2023-03-01T16:51:08;4.00;59.10
11140;DHT22;5624;49.388;11.350;2023-03-01T16:53:35;4.00;59.20
11140;DHT22;5624;49.388;11.350;2023-03-01T16:56:05;4.00;59.30
11140;DHT22;5624;49.388;11.350;2023-03-01T16:58:32;3.80;59.60
11140;DHT22;5624;49.388;11.350;2023-03-01T17:01:04;3.80;59.90
11140;DHT22;5624;49.388;11.350;2023-03-01T17:03:31;3.80;60.00
11140;DHT22;5624;49.388;11.350;2023-03-01T17:06:00;3.80;59.70
11140;DHT22;5624;49.388;11.350;2023-03-01T17:08:25;3.70;60.10
11140;DHT22;5624;49.388;11.350;2023-03-01T17:10:51;3.70;60.20
11140;DHT22;5624;49.388;11.350;2023-03-01T17:13:17;3.70;60.40
11140;DHT22;5624;49.388;11.350;2023-03-01T17:15:42;3.60;60.60
11140;DHT22;5624;49.388;11.350;2023-03-01T17:18:08;3.50;60.90
11140;DHT22;5624;49.388;11.350;2023-03-01T17:20:35;3.50;60.90
11140;DHT22;5624;49.388;11.350;2023-03-01T17:23:01;3.50;60.80
11140;DHT22;5624;49.388;11.350;2023-03-01T17:25:27;3.40;61.00
11140;DHT22;5624;49.388;11.350;2023-03-01T17:27:53;3.30;61.30
11140;DHT22;5624;49.388;11.350;2023-03-01T17:30:19;3.40;61.20
11140;DHT22;5624;49.388;11.350;2023-03-01T17:32:45;3.30;61.20
11140;DHT22;5624;49.388;11.350;2023-03-01T17:35:10;3.30;61.20
11140;DHT22;5624;49.388;11.350;2023-03-01T17:37:37;3.20;61.60
11140;DHT22;5624;49.388;11.350;2023-03-01T17:40:04;3.10;62.20
11140;DHT22;5624;49.388;11.350;2023-03-01T17:42:31;3.00;62.50
11140;DHT22;5624;49.388;11.350;2023-03-01T17:44:57;3.00;62.50
11140;DHT22;5624;49.388;11.350;2023-03-01T17:47:23;3.10;62.20
11140;DHT22;5624;49.388;11.350;2023-03-01T17:49:49;3.00;62.40
11140;DHT22;5624;49.388;11.350;2023-03-01T17:52:14;3.00;62.40